Time;durP1;ratioP1;P1;durP2;ratioP2;P2;SDS_P1;SDS_P2;PMS_P1;PMS_P2;Temp;Humidity;BMP_temperature;BMP_pressure;BME280_temperature;BME280_humidity;BME280_pressure;Samples;Min_cycle;Max_cycle;Signal;HPM_P1;HPM_P2
2023/08/25 00:00:37;;;;;;;13.13;8.23;;;;;;;;;;5061496;28;20201;-69
2023/08/25 00:03:03;;;;;;;9.77;7.73;;;;;;;;;;5041266;28;20202;-69
2023/08/25 00:05:29;;;;;;;11.27;7.83;;;;;;;;;;5040467;28;20189;-69
2023/08/25 00:07:55;;;;;;;11.33;7.47;;;;;;;;;;5040659;28;20210;-69
2023/08/25 00:10:24;;;;;;;10.70;7.23;;;;;;;;;;5058743;28;20242;-69
2023/08/25 00:12:50;;;;;;;10.80;7.17;;;;;;;;;;5040818;28;20193;-69
2023/08/25 00:15:16;;;;;;;8.53;6.73;;;;;;;;;;5040126;28;20186;-69
2023/08/25 00:17:42;;;;;;;8.50;6.57;;;;;;;;;;5058687;28;20195;-69
2023/08/25 00:20:12;;;;;;;12.23;7.23;;;;;;;;;;5058444;28;20271;-69
2023/08/25 00:22:38;;;;;;;11.57;7.43;;;;;;;;;;5060621;28;20251;-68
2023/08/25 00:25:04;;;;;;;11.10;7.53;;;;;;;;;;5060888;28;20259;-68
2023/08/25 00:27:30;;;;;;;14.40;8.13;;;;;;;;;;5060290;28;20201;-69
2023/08/25 00:29:56;;;;;;;17.00;8.73;;;;;;;;;;5059524;28;20234;-69
2023/08/25 00:32:22;;;;;;;9.57;8.00;;;;;;;;;;5056596;28;20213;-69
2023/08/25 00:34:48;;;;;;;12.13;8.30;;;;;;;;;;5056306;28;20224;-69
2023/08/25 00:37:14;;;;;;;14.83;9.07;;;;;;;;;;5056003;28;20198;-69
2023/08/25 00:39:40;;;;;;;13.70;9.20;;;;;;;;;;5055471;28;20179;-69
2023/08/25 00:42:06;;;;;;;14.57;8.67;;;;;;;;;;5055378;28;20179;-69
2023/08/25 00:44:32;;;;;;;17.70;8.80;;;;;;;;;;5055487;28;20195;-70
2023/08/25 00:46:59;;;;;;;14.87;9.17;;;;;;;;;;5055352;28;20170;-69
2023/08/25 00:49:25;;;;;;;15.53;9.23;;;;;;;;;;5054611;28;20199;-69
2023/08/25 00:51:52;;;;;;;16.30;9.47;;;;;;;;;;5054838;28;20257;-69
2023/08/25 00:54:19;;;;;;;16.70;9.43;;;;;;;;;;5054900;28;20276;-67
2023/08/25 00:56:45;;;;;;;15.10;9.20;;;;;;;;;;5054821;28;20179;-67
2023/08/25 00:59:11;;;;;;;16.77;10.10;;;;;;;;;;5054480;28;20198;-67
2023/08/25 01:01:38;;;;;;;19.20;10.20;;;;;;;;;;5054843;28;20248;-67
2023/08/25 01:04:03;;;;;;;15.20;9.67;;;;;;;;;;5055374;28;20630;-67
2023/08/25 01:06:29;;;;;;;14.00;9.63;;;;;;;;;;5055887;28;20182;-67
2023/08/25 01:08:55;;;;;;;16.87;10.13;;;;;;;;;;5059574;28;20225;-66
2023/08/25 01:11:41;;;;;;;14.90;10.17;;;;;;;;;;5037627;28;20182;-67
2023/08/25 01:14:17;;;;;;;18.60;9.97;;;;;;;;;;5038037;28;20261;-67
2023/08/25 01:16:46;;;;;;;16.57;10.03;;;;;;;;;;5055424;28;20170;-67
2023/08/25 01:19:26;;;;;;;16.30;9.67;;;;;;;;;;5056925;28;20664;-66
2023/08/25 01:21:57;;;;;;;13.27;9.60;;;;;;;;;;5058784;28;20604;-67
2023/08/25 01:24:28;;;;;;;14.57;10.50;;;;;;;;;;5040456;28;20193;-67
2023/08/25 01:26:54;;;;;;;14.57;11.17;;;;;;;;;;5058323;28;20170;-67
2023/08/25 01:29:20;;;;;;;15.03;10.50;;;;;;;;;;5057759;28;20593;-67
2023/08/25 01:31:46;;;;;;;13.80;10.40;;;;;;;;;;5058603;28;20266;-67
2023/08/25 01:34:13;;;;;;;15.40;10.17;;;;;;;;;;5058204;28;20641;-67
2023/08/25 01:37:05;;;;;;;15.70;9.97;;;;;;;;;;5057806;28;20186;-66
2023/08/25 01:39:31;;;;;;;12.70;9.57;;;;;;;;;;5053479;28;20281;-67
2023/08/25 01:42:02;;;;;;;14.63;10.40;;;;;;;;;;5057150;28;20214;-66
2023/08/25 01:44:29;;;;;;;13.73;10.27;;;;;;;;;;5039160;28;20640;-67
2023/08/25 01:46:58;;;;;;;12.83;9.80;;;;;;;;;;5056654;28;20181;-65
2023/08/25 01:49:24;;;;;;;14.70;9.77;;;;;;;;;;5039000;28;20672;-67
2023/08/25 01:51:51;;;;;;;15.53;10.43;;;;;;;;;;5042653;28;20179;-66
2023/08/25 01:54:17;;;;;;;10.80;9.40;;;;;;;;;;5081803;22;20244;-67
2023/08/25 01:56:43;;;;;;;11.80;9.00;;;;;;;;;;5037272;28;20175;-67
2023/08/25 01:59:09;;;;;;;12.83;10.10;;;;;;;;;;5055069;28;20170;-67
2023/08/25 02:01:35;;;;;;;12.10;9.80;;;;;;;;;;5055370;28;20186;-69
2023/08/25 02:04:01;;;;;;;14.57;10.57;;;;;;;;;;5056751;28;20241;-69
2023/08/25 02:06:27;;;;;;;14.63;11.37;;;;;;;;;;5055124;28;20599;-69
2023/08/25 02:08:53;;;;;;;14.57;10.13;;;;;;;;;;5054981;28;20178;-69
2023/08/25 02:11:19;;;;;;;17.47;10.67;;;;;;;;;;5055401;28;20542;-69
2023/08/25 02:13:45;;;;;;;16.77;10.90;;;;;;;;;;5055157;28;20255;-69
2023/08/25 02:16:12;;;;;;;13.73;9.93;;;;;;;;;;5054898;28;20661;-69
2023/08/25 02:18:38;;;;;;;18.10;10.73;;;;;;;;;;5037085;28;20232;-69
2023/08/25 02:21:03;;;;;;;12.03;10.73;;;;;;;;;;5055129;28;20265;-69
2023/08/25 02:23:30;;;;;;;13.77;11.30;;;;;;;;;;5036911;28;20202;-69
2023/08/25 02:25:56;;;;;;;17.50;11.97;;;;;;;;;;5054965;28;20182;-69
2023/08/25 02:28:22;;;;;;;16.23;11.73;;;;;;;;;;5036890;28;20636;-69
2023/08/25 02:30:47;;;;;;;14.40;10.03;;;;;;;;;;5054018;28;20185;-69
2023/08/25 02:33:14;;;;;;;15.57;10.60;;;;;;;;;;5036705;28;20649;-70
2023/08/25 02:35:40;;;;;;;18.57;11.20;;;;;;;;;;5054352;28;20293;-69
2023/08/25 02:38:07;;;;;;;14.43;10.93;;;;;;;;;;5036576;28;20178;-69
2023/08/25 02:40:33;;;;;;;16.47;11.77;;;;;;;;;;5054955;28;20178;-69
2023/08/25 02:43:00;;;;;;;15.60;11.47;;;;;;;;;;5054261;28;20625;-69
2023/08/25 02:45:27;;;;;;;19.50;12.20;;;;;;;;;;5036366;28;20202;-69
2023/08/25 02:47:53;;;;;;;19.13;12.33;;;;;;;;;;5054224;28;20181;-69
2023/08/25 02:50:20;;;;;;;15.77;12.07;;;;;;;;;;5054177;28;20254;-69
2023/08/25 02:52:46;;;;;;;23.23;12.17;;;;;;;;;;5054128;28;20192;-69
2023/08/25 02:55:16;;;;;;;16.07;12.20;;;;;;;;;;5036211;28;20595;-70
2023/08/25 02:57:42;;;;;;;15.87;12.23;;;;;;;;;;5037518;28;20182;-70
2023/08/25 03:00:09;;;;;;;17.40;12.03;;;;;;;;;;5054944;28;20216;-69
2023/08/25 03:02:35;;;;;;;16.67;13.93;;;;;;;;;;5035968;28;20179;-69
2023/08/25 03:05:01;;;;;;;17.90;13.23;;;;;;;;;;5053982;28;20194;-69
2023/08/25 03:07:27;;;;;;;17.47;13.30;;;;;;;;;;5035905;28;20747;-69
2023/08/25 03:09:53;;;;;;;24.27;12.93;;;;;;;;;;5035878;28;20262;-69
2023/08/25 03:12:19;;;;;;;17.17;13.13;;;;;;;;;;5054139;28;20629;-69
2023/08/25 03:14:45;;;;;;;15.40;11.77;;;;;;;;;;5053752;28;20230;-69
2023/08/25 03:17:11;;;;;;;15.70;12.07;;;;;;;;;;5054265;28;20650;-69
2023/08/25 03:19:37;;;;;;;14.67;12.53;;;;;;;;;;5035706;28;20671;-69
2023/08/25 03:22:03;;;;;;;17.13;12.30;;;;;;;;;;5035726;28;20244;-69
2023/08/25 03:24:29;;;;;;;20.47;13.13;;;;;;;;;;5035613;28;20218;-69
2023/08/25 03:26:58;;;;;;;15.03;12.13;;;;;;;;;;5053824;28;20182;-70
2023/08/25 03:29:25;;;;;;;19.43;13.47;;;;;;;;;;5035830;28;20658;-69
2023/08/25 03:31:51;;;;;;;17.53;12.83;;;;;;;;;;5035730;28;20182;-69
2023/08/25 03:34:17;;;;;;;15.07;12.40;;;;;;;;;;5035538;28;20202;-69
2023/08/25 03:36:43;;;;;;;18.67;14.33;;;;;;;;;;5053800;28;20704;-69
2023/08/25 03:39:09;;;;;;;18.87;13.90;;;;;;;;;;5053731;28;20174;-69
2023/08/25 03:41:36;;;;;;;17.53;13.07;;;;;;;;;;5034728;28;20194;-69
2023/08/25 03:44:02;;;;;;;18.57;13.40;;;;;;;;;;5053235;28;20701;-69
2023/08/25 03:46:28;;;;;;;20.23;15.33;;;;;;;;;;5035412;28;20212;-69
2023/08/25 03:48:54;;;;;;;19.03;14.97;;;;;;;;;;5053280;28;20300;-69
2023/08/25 03:51:20;;;;;;;19.23;14.30;;;;;;;;;;5036100;28;20178;-69
2023/08/25 03:53:46;;;;;;;18.23;14.07;;;;;;;;;;5053792;28;20197;-69
2023/08/25 03:56:12;;;;;;;22.13;15.07;;;;;;;;;;5053080;28;20170;-69
2023/08/25 03:58:38;;;;;;;19.33;14.63;;;;;;;;;;5053312;28;20229;-69
2023/08/25 04:01:04;;;;;;;19.20;14.27;;;;;;;;;;5052964;28;20181;-69
2023/08/25 04:03:29;;;;;;;18.67;13.93;;;;;;;;;;5053420;28;20285;-68
2023/08/25 04:05:55;;;;;;;16.67;13.63;;;;;;;;;;5053019;28;20644;-69
2023/08/25 04:08:21;;;;;;;18.97;14.30;;;;;;;;;;5052806;28;20661;-69
2023/08/25 04:10:48;;;;;;;18.47;14.47;;;;;;;;;;5052850;28;20201;-69
2023/08/25 04:13:14;;;;;;;18.13;14.67;;;;;;;;;;5052754;28;20178;-69
2023/08/25 04:15:40;;;;;;;20.37;14.67;;;;;;;;;;5052959;28;20623;-69
2023/08/25 04:18:06;;;;;;;19.20;14.87;;;;;;;;;;5035057;28;20221;-69
2023/08/25 04:20:32;;;;;;;20.00;14.37;;;;;;;;;;5035194;28;20178;-69
2023/08/25 04:23:01;;;;;;;16.87;14.33;;;;;;;;;;5034884;28;20210;-69
2023/08/25 04:25:29;;;;;;;20.13;14.80;;;;;;;;;;5052732;28;20226;-69
2023/08/25 04:27:55;;;;;;;18.40;14.67;;;;;;;;;;5052798;28;20171;-69
2023/08/25 04:30:22;;;;;;;19.70;13.73;;;;;;;;;;5052824;28;20178;-69
2023/08/25 04:32:49;;;;;;;19.50;14.00;;;;;;;;;;5053134;28;20264;-68
2023/08/25 04:35:15;;;;;;;18.97;14.10;;;;;;;;;;5052691;28;20583;-69
2023/08/25 04:37:44;;;;;;;17.87;14.03;;;;;;;;;;5052798;28;20560;-69
2023/08/25 04:40:09;;;;;;;16.40;13.70;;;;;;;;;;5053104;28;20181;-69
2023/08/25 04:42:38;;;;;;;15.37;12.90;;;;;;;;;;5052780;28;20671;-69
2023/08/25 04:45:04;;;;;;;14.60;13.03;;;;;;;;;;5053323;28;20668;-69
2023/08/25 04:47:30;;;;;;;16.00;12.40;;;;;;;;;;5036057;28;20300;-69
2023/08/25 04:49:57;;;;;;;16.50;12.73;;;;;;;;;;5035230;28;20193;-69
2023/08/25 04:52:24;;;;;;;18.83;12.80;;;;;;;;;;5053649;28;20175;-69
2023/08/25 04:54:50;;;;;;;16.87;12.13;;;;;;;;;;5038465;28;20723;-69
2023/08/25 04:57:16;;;;;;;18.07;14.00;;;;;;;;;;5056694;28;20221;-69
2023/08/25 04:59:42;;;;;;;17.07;12.97;;;;;;;;;;5038916;28;20178;-69
2023/08/25 05:02:08;;;;;;;15.60;12.50;;;;;;;;;;5056627;28;20178;-69
2023/08/25 05:04:33;;;;;;;13.50;11.53;;;;;;;;;;5059744;28;20252;-69
2023/08/25 05:06:59;;;;;;;13.03;11.67;;;;;;;;;;5058660;28;20201;-69
2023/08/25 05:09:25;;;;;;;14.43;11.90;;;;;;;;;;5058703;28;20423;-69
2023/08/25 05:11:51;;;;;;;16.47;11.37;;;;;;;;;;5059268;28;20178;-69
2023/08/25 05:14:17;;;;;;;13.10;10.77;;;;;;;;;;5057910;28;20582;-69
2023/08/25 05:16:43;;;;;;;15.23;10.77;;;;;;;;;;5056251;28;20565;-69
2023/08/25 05:19:11;;;;;;;16.27;10.80;;;;;;;;;;5056167;28;20182;-69
2023/08/25 05:21:37;;;;;;;20.17;11.87;;;;;;;;;;5038069;28;20182;-69
2023/08/25 05:24:24;;;;;;;14.80;11.13;;;;;;;;;;5055793;28;20221;-69
2023/08/25 05:26:53;;;;;;;15.60;11.17;;;;;;;;;;5055854;28;20615;-69
2023/08/25 05:29:26;;;;;;;13.97;10.87;;;;;;;;;;5038004;28;20186;-69
2023/08/25 05:31:52;;;;;;;23.37;16.60;;;;;;;;;;5055913;28;20229;-69
2023/08/25 05:34:18;;;;;;;34.13;23.57;;;;;;;;;;5055972;28;20664;-69
2023/08/25 05:36:44;;;;;;;27.10;19.33;;;;;;;;;;5056009;28;20561;-69
2023/08/25 05:39:12;;;;;;;17.97;14.57;;;;;;;;;;5057184;28;20182;-69
2023/08/25 05:41:38;;;;;;;22.03;14.93;;;;;;;;;;5056176;28;20228;-69
2023/08/25 05:44:04;;;;;;;16.77;11.70;;;;;;;;;;5055248;28;20206;-69
2023/08/25 05:46:30;;;;;;;13.90;10.30;;;;;;;;;;5037603;28;20179;-69
2023/08/25 05:48:57;;;;;;;14.37;10.87;;;;;;;;;;5037493;28;20186;-69
2023/08/25 05:51:23;;;;;;;14.40;9.40;;;;;;;;;;5055440;28;20171;-69
2023/08/25 05:53:49;;;;;;;11.63;9.30;;;;;;;;;;5055183;28;20745;-69
2023/08/25 05:56:15;;;;;;;19.37;9.30;;;;;;;;;;5055589;28;20175;-69
2023/08/25 05:58:42;;;;;;;14.50;9.23;;;;;;;;;;5037304;28;20175;-69
2023/08/25 06:01:08;;;;;;;12.40;8.70;;;;;;;;;;5055382;28;20186;-69
2023/08/25 06:03:34;;;;;;;11.43;8.93;;;;;;;;;;5054616;28;20275;-69
2023/08/25 06:06:00;;;;;;;14.07;8.07;;;;;;;;;;5054799;28;20174;-69
2023/08/25 06:08:26;;;;;;;10.23;7.30;;;;;;;;;;5054921;28;20189;-69
2023/08/25 06:10:53;;;;;;;9.87;6.73;;;;;;;;;;5036979;28;20641;-69
2023/08/25 06:13:19;;;;;;;13.73;7.67;;;;;;;;;;5055022;28;20264;-69
2023/08/25 06:15:45;;;;;;;9.80;6.50;;;;;;;;;;5036851;28;20700;-69
2023/08/25 06:18:12;;;;;;;10.37;6.70;;;;;;;;;;5054859;28;20249;-69
2023/08/25 06:20:39;;;;;;;9.47;6.07;;;;;;;;;;5036911;28;20189;-69
2023/08/25 06:23:05;;;;;;;10.57;6.53;;;;;;;;;;5054914;28;20210;-69
2023/08/25 06:25:31;;;;;;;9.53;6.17;;;;;;;;;;5036931;28;20195;-69
2023/08/25 06:27:57;;;;;;;8.47;6.60;;;;;;;;;;5055129;28;20672;-69
2023/08/25 06:30:24;;;;;;;10.67;6.80;;;;;;;;;;5037405;28;20220;-69
2023/08/25 06:32:50;;;;;;;12.93;7.60;;;;;;;;;;5038128;28;20183;-68
2023/08/25 06:35:16;;;;;;;10.77;7.07;;;;;;;;;;5055136;28;20760;-68
2023/08/25 06:37:42;;;;;;;13.43;8.67;;;;;;;;;;5054525;28;20206;-69
2023/08/25 06:40:08;;;;;;;9.10;7.13;;;;;;;;;;5054516;28;20257;-69
2023/08/25 06:42:34;;;;;;;11.23;8.07;;;;;;;;;;5036391;28;20190;-69
2023/08/25 06:45:00;;;;;;;12.67;7.60;;;;;;;;;;5036450;28;20203;-69
2023/08/25 06:47:27;;;;;;;11.33;7.50;;;;;;;;;;5036480;28;20190;-69
2023/08/25 06:49:53;;;;;;;13.10;7.03;;;;;;;;;;5036318;28;20185;-69
2023/08/25 06:52:19;;;;;;;12.10;7.27;;;;;;;;;;5036492;28;20547;-69
2023/08/25 06:54:45;;;;;;;11.83;7.40;;;;;;;;;;5053852;28;20216;-69
2023/08/25 06:57:11;;;;;;;11.23;7.40;;;;;;;;;;5054088;28;20507;-69
2023/08/25 06:59:37;;;;;;;11.43;7.33;;;;;;;;;;5053973;28;20171;-68
2023/08/25 07:02:03;;;;;;;13.33;7.07;;;;;;;;;;5036405;28;20182;-68
2023/08/25 07:04:29;;;;;;;11.90;6.87;;;;;;;;;;5053918;28;20202;-69
2023/08/25 07:06:55;;;;;;;13.60;8.03;;;;;;;;;;5053769;28;20233;-69
2023/08/25 07:09:21;;;;;;;16.93;7.50;;;;;;;;;;5053570;28;20178;-69
2023/08/25 07:11:47;;;;;;;15.27;7.63;;;;;;;;;;5053730;28;20198;-69
2023/08/25 07:14:13;;;;;;;12.40;8.47;;;;;;;;;;5053664;28;20198;-69
2023/08/25 07:16:39;;;;;;;11.97;8.10;;;;;;;;;;5035883;28;20240;-69
2023/08/25 07:19:05;;;;;;;13.40;8.07;;;;;;;;;;5035680;28;20217;-69
2023/08/25 07:21:32;;;;;;;14.77;8.10;;;;;;;;;;5053845;28;20183;-69
2023/08/25 07:23:58;;;;;;;15.10;7.70;;;;;;;;;;5053833;28;20210;-68
2023/08/25 07:26:25;;;;;;;12.20;7.30;;;;;;;;;;5055980;28;20175;-69
2023/08/25 07:28:51;;;;;;;9.60;7.27;;;;;;;;;;5058135;28;20163;-69
2023/08/25 07:31:17;;;;;;;13.37;7.60;;;;;;;;;;5036156;28;20179;-68
2023/08/25 07:33:43;;;;;;;12.80;7.20;;;;;;;;;;5036091;28;20208;-68
2023/08/25 07:36:09;;;;;;;10.67;7.07;;;;;;;;;;5054221;28;20189;-69
2023/08/25 07:38:35;;;;;;;15.23;7.67;;;;;;;;;;5035821;28;20178;-70
2023/08/25 07:41:01;;;;;;;19.23;9.30;;;;;;;;;;5053866;28;20179;-70
2023/08/25 07:43:27;;;;;;;12.43;9.10;;;;;;;;;;5053551;28;20233;-70
2023/08/25 07:45:54;;;;;;;19.97;10.47;;;;;;;;;;5035909;28;20218;-69
2023/08/25 07:48:21;;;;;;;14.03;11.20;;;;;;;;;;5053388;28;20710;-69
2023/08/25 07:50:47;;;;;;;18.17;11.53;;;;;;;;;;5036024;28;20205;-69
2023/08/25 07:53:13;;;;;;;17.37;12.40;;;;;;;;;;5054028;28;20182;-70
2023/08/25 07:55:40;;;;;;;17.23;11.67;;;;;;;;;;5076593;23;20226;-66
2023/08/25 07:58:09;;;;;;;15.60;11.67;;;;;;;;;;5035231;28;20599;-67
2023/08/25 08:00:37;;;;;;;18.07;13.33;;;;;;;;;;5035124;28;20213;-67
2023/08/25 08:03:04;;;;;;;23.40;13.63;;;;;;;;;;5053118;28;20205;-67
2023/08/25 08:05:30;;;;;;;17.77;12.93;;;;;;;;;;5052820;28;20541;-68
2023/08/25 08:07:58;;;;;;;26.03;14.97;;;;;;;;;;5035004;28;20170;-67
2023/08/25 08:10:24;;;;;;;26.50;15.23;;;;;;;;;;5035877;28;20186;-67
2023/08/25 08:12:50;;;;;;;25.00;14.63;;;;;;;;;;5052972;28;20178;-66
2023/08/25 08:15:16;;;;;;;31.60;16.17;;;;;;;;;;5035199;28;20186;-67
2023/08/25 08:17:42;;;;;;;20.33;15.03;;;;;;;;;;5034966;28;20273;-67
2023/08/25 08:20:12;;;;;;;29.60;16.30;;;;;;;;;;5034758;28;20190;-67
2023/08/25 08:22:38;;;;;;;22.50;15.70;;;;;;;;;;5035048;28;20596;-67
2023/08/25 08:25:05;;;;;;;26.13;16.43;;;;;;;;;;5052808;28;20228;-67
2023/08/25 08:27:32;;;;;;;27.10;16.70;;;;;;;;;;5053956;28;20174;-67
2023/08/25 08:29:58;;;;;;;24.33;15.20;;;;;;;;;;5057394;28;20174;-67
2023/08/25 08:32:24;;;;;;;16.77;14.63;;;;;;;;;;5038973;28;20183;-67
2023/08/25 08:34:50;;;;;;;18.67;14.50;;;;;;;;;;5038810;28;20682;-67
2023/08/25 08:37:16;;;;;;;24.63;14.97;;;;;;;;;;5056722;28;20558;-67
2023/08/25 08:39:44;;;;;;;19.47;14.23;;;;;;;;;;5038892;28;20649;-69
2023/08/25 08:42:12;;;;;;;22.33;14.73;;;;;;;;;;5056760;28;20269;-67
2023/08/25 08:44:38;;;;;;;19.37;16.10;;;;;;;;;;5056746;28;20201;-67
2023/08/25 08:47:04;;;;;;;17.73;15.47;;;;;;;;;;5056855;28;20190;-67
2023/08/25 08:49:33;;;;;;;30.63;18.03;;;;;;;;;;5056491;28;20178;-69
2023/08/25 08:51:59;;;;;;;29.17;19.77;;;;;;;;;;5055337;28;20855;-67
2023/08/25 08:54:26;;;;;;;22.13;17.97;;;;;;;;;;5056977;28;20314;-67
2023/08/25 08:56:52;;;;;;;22.87;16.97;;;;;;;;;;5038372;28;20225;-68
2023/08/25 08:59:18;;;;;;;20.27;16.37;;;;;;;;;;5056490;28;20182;-69
2023/08/25 09:01:44;;;;;;;18.50;14.43;;;;;;;;;;5056396;28;20232;-67
2023/08/25 09:04:11;;;;;;;20.00;14.80;;;;;;;;;;5038854;28;20665;-67
2023/08/25 09:06:38;;;;;;;21.57;14.90;;;;;;;;;;5056735;28;20190;-66
2023/08/25 09:09:06;;;;;;;22.73;14.70;;;;;;;;;;5038459;28;20182;-67
2023/08/25 09:11:33;;;;;;;20.90;13.77;;;;;;;;;;5038101;28;20724;-67
2023/08/25 09:14:03;;;;;;;21.90;15.07;;;;;;;;;;5056189;28;20190;-67
2023/08/25 09:16:30;;;;;;;20.40;12.57;;;;;;;;;;5038385;28;20221;-67
2023/08/25 09:18:59;;;;;;;18.77;12.13;;;;;;;;;;5037995;28;20266;-67
2023/08/25 09:21:25;;;;;;;19.30;12.33;;;;;;;;;;5056518;28;20179;-67
2023/08/25 09:23:52;;;;;;;18.53;12.93;;;;;;;;;;5056068;28;20209;-67
2023/08/25 09:26:18;;;;;;;20.30;14.80;;;;;;;;;;5055748;28;20334;-67
2023/08/25 09:28:44;;;;;;;23.83;15.63;;;;;;;;;;5037819;28;20228;-67
2023/08/25 09:31:23;;;;;;;18.97;15.13;;;;;;;;;;5055529;28;20670;-67
2023/08/25 09:33:50;;;;;;;26.17;15.70;;;;;;;;;;5037703;28;20189;-68
2023/08/25 09:36:16;;;;;;;34.23;17.80;;;;;;;;;;5037635;28;20293;-67
2023/08/25 09:38:47;;;;;;;18.97;14.00;;;;;;;;;;5054959;28;20182;-67
2023/08/25 09:41:22;;;;;;;24.93;14.03;;;;;;;;;;5055539;28;20604;-69
2023/08/25 09:43:48;;;;;;;20.53;12.47;;;;;;;;;;5055519;28;20220;-68
2023/08/25 09:46:14;;;;;;;19.92;14.80;;;;;;;;;;5054176;28;20863;-66
2023/08/25 09:48:40;;;;;;;20.97;12.67;;;;;;;;;;5037467;28;20189;-66
2023/08/25 09:51:06;;;;;;;24.33;14.03;;;;;;;;;;5037396;28;20265;-65
2023/08/25 09:53:34;;;;;;;18.00;12.43;;;;;;;;;;5055703;28;20237;-65
2023/08/25 09:56:02;;;;;;;17.73;12.27;;;;;;;;;;5054841;28;20300;-67
2023/08/25 09:58:29;;;;;;;17.27;11.30;;;;;;;;;;5055154;28;20182;-67
2023/08/25 10:00:55;;;;;;;28.57;13.93;;;;;;;;;;5055343;28;20273;-67
2023/08/25 10:03:21;;;;;;;35.17;13.77;;;;;;;;;;5054758;28;20281;-67
2023/08/25 10:05:47;;;;;;;34.17;13.80;;;;;;;;;;5036825;28;20202;-67
2023/08/25 10:08:14;;;;;;;19.50;11.73;;;;;;;;;;5036794;28;20178;-66
2023/08/25 10:10:43;;;;;;;22.80;11.10;;;;;;;;;;5055142;28;20178;-67
2023/08/25 10:13:12;;;;;;;30.43;13.40;;;;;;;;;;5036888;28;20182;-68
2023/08/25 10:15:38;;;;;;;21.20;12.27;;;;;;;;;;5054720;28;20198;-66
2023/08/25 10:18:07;;;;;;;26.07;14.90;;;;;;;;;;5036916;28;20182;-66
2023/08/25 10:20:35;;;;;;;27.00;14.73;;;;;;;;;;5036710;28;20182;-66
2023/08/25 10:23:04;;;;;;;22.53;11.63;;;;;;;;;;5036674;28;20189;-66
2023/08/25 10:25:30;;;;;;;20.83;12.97;;;;;;;;;;5037669;28;20551;-65
2023/08/25 10:27:58;;;;;;;16.37;10.43;;;;;;;;;;5036562;28;20622;-66
2023/08/25 10:30:24;;;;;;;20.27;11.27;;;;;;;;;;5036633;28;20182;-66
2023/08/25 10:32:50;;;;;;;15.70;10.13;;;;;;;;;;5054412;28;20182;-66
2023/08/25 10:35:16;;;;;;;18.03;8.97;;;;;;;;;;5054313;28;20178;-67
2023/08/25 10:37:42;;;;;;;19.77;8.33;;;;;;;;;;5054755;28;20629;-66
2023/08/25 10:40:10;;;;;;;14.07;8.40;;;;;;;;;;5036578;28;20186;-67
2023/08/25 10:42:36;;;;;;;15.60;7.57;;;;;;;;;;5054601;28;20198;-66
2023/08/25 10:45:08;;;;;;;15.87;8.47;;;;;;;;;;5054316;28;20236;-67
2023/08/25 10:47:41;;;;;;;130.93;41.80;;;;;;;;;;5054292;28;20170;-67
2023/08/25 10:50:07;;;;;;;118.10;35.67;;;;;;;;;;5053971;28;20159;-67
2023/08/25 10:52:33;;;;;;;26.57;12.27;;;;;;;;;;5054216;28;20197;-66
2023/08/25 10:55:19;;;;;;;14.63;8.53;;;;;;;;;;5036047;28;20182;-67
2023/08/25 10:57:50;;;;;;;20.13;9.77;;;;;;;;;;5036236;28;20198;-66
2023/08/25 11:00:27;;;;;;;18.40;9.17;;;;;;;;;;5054196;28;20166;-66
2023/08/25 11:02:53;;;;;;;11.63;7.87;;;;;;;;;;5053863;28;20551;-66
2023/08/25 11:05:33;;;;;;;15.73;7.87;;;;;;;;;;5053727;28;20194;-66
2023/08/25 11:08:25;;;;;;;10.80;7.17;;;;;;;;;;5035924;28;20281;-66
2023/08/25 11:11:12;;;;;;;26.73;14.27;;;;;;;;;;5035916;28;20174;-66
2023/08/25 11:13:42;;;;;;;79.47;34.57;;;;;;;;;;5035747;28;20186;-68
2023/08/25 11:16:09;;;;;;;35.27;17.83;;;;;;;;;;5054067;28;20202;-66
2023/08/25 11:18:35;;;;;;;45.57;21.27;;;;;;;;;;5036480;28;20605;-67
2023/08/25 11:21:02;;;;;;;37.17;17.30;;;;;;;;;;5054072;28;20186;-67
2023/08/25 11:23:55;;;;;;;42.30;20.90;;;;;;;;;;5036446;28;20224;-67
2023/08/25 11:26:22;;;;;;;42.23;21.47;;;;;;;;;;5051411;28;20210;-66
2023/08/25 11:28:53;;;;;;;43.97;22.10;;;;;;;;;;5054134;28;20182;-68
2023/08/25 11:31:23;;;;;;;35.67;17.83;;;;;;;;;;5054218;28;20182;-65
2023/08/25 11:33:52;;;;;;;32.80;17.13;;;;;;;;;;5053596;28;20573;-65
2023/08/25 11:36:18;;;;;;;30.97;15.77;;;;;;;;;;5035376;28;20202;-65
2023/08/25 11:38:50;;;;;;;41.20;24.67;;;;;;;;;;5053508;28;20641;-66
2023/08/25 11:41:17;;;;;;;30.20;18.17;;;;;;;;;;5035873;28;20186;-65
2023/08/25 11:43:45;;;;;;;26.57;15.97;;;;;;;;;;5053227;28;20722;-65
2023/08/25 11:46:11;;;;;;;17.23;11.73;;;;;;;;;;5035332;28;20202;-65
2023/08/25 11:48:38;;;;;;;15.47;11.47;;;;;;;;;;5053314;28;20266;-65
2023/08/25 11:51:04;;;;;;;15.73;12.10;;;;;;;;;;5053122;28;20170;-66
2023/08/25 11:53:30;;;;;;;20.77;13.63;;;;;;;;;;5053357;28;20182;-65
2023/08/25 11:55:59;;;;;;;18.30;11.90;;;;;;;;;;5053090;28;20635;-66
2023/08/25 11:58:29;;;;;;;14.50;10.60;;;;;;;;;;5053091;28;20710;-66
2023/08/25 12:00:59;;;;;;;12.27;9.50;;;;;;;;;;5035089;28;20686;-66
2023/08/25 12:03:25;;;;;;;15.37;12.10;;;;;;;;;;5034260;28;20211;-66
2023/08/25 12:05:51;;;;;;;17.00;12.70;;;;;;;;;;5035260;28;20560;-66
2023/08/25 12:08:17;;;;;;;17.87;14.20;;;;;;;;;;5052955;28;20174;-67
2023/08/25 12:10:43;;;;;;;12.57;10.37;;;;;;;;;;5035015;28;20273;-67
2023/08/25 12:13:09;;;;;;;14.93;9.70;;;;;;;;;;5052743;28;20626;-67
2023/08/25 12:15:42;;;;;;;8.87;7.27;;;;;;;;;;5035177;28;20255;-67
2023/08/25 12:18:08;;;;;;;9.03;6.53;;;;;;;;;;5034980;28;20186;-68
2023/08/25 12:20:34;;;;;;;8.83;7.10;;;;;;;;;;5052942;28;20202;-68
2023/08/25 12:23:00;;;;;;;15.43;9.50;;;;;;;;;;5034851;28;20186;-68
2023/08/25 12:25:27;;;;;;;13.17;7.80;;;;;;;;;;5053029;28;20201;-68
2023/08/25 12:27:54;;;;;;;9.40;7.53;;;;;;;;;;5053038;28;20185;-68
2023/08/25 12:30:20;;;;;;;10.03;7.83;;;;;;;;;;5052705;28;20641;-67
2023/08/25 12:32:46;;;;;;;8.40;6.37;;;;;;;;;;5034909;28;20194;-69
2023/08/25 12:35:12;;;;;;;8.33;6.33;;;;;;;;;;5052796;28;20174;-71
2023/08/25 12:37:38;;;;;;;9.87;6.60;;;;;;;;;;5053822;28;20183;-68
2023/08/25 12:40:05;;;;;;;9.20;5.40;;;;;;;;;;5053769;28;20178;-68
2023/08/25 12:42:31;;;;;;;6.27;4.63;;;;;;;;;;5035991;28;20185;-69
2023/08/25 12:44:57;;;;;;;6.70;5.57;;;;;;;;;;5052837;28;20202;-68
2023/08/25 12:47:23;;;;;;;6.70;4.60;;;;;;;;;;5053302;28;20171;-69
2023/08/25 12:49:49;;;;;;;5.03;4.50;;;;;;;;;;5052823;28;20196;-69
2023/08/25 12:52:16;;;;;;;7.17;4.63;;;;;;;;;;5034860;28;20277;-69
2023/08/25 12:54:43;;;;;;;6.57;4.17;;;;;;;;;;5052815;28;20261;-70
2023/08/25 12:57:09;;;;;;;5.80;5.10;;;;;;;;;;5052644;28;20310;-68
2023/08/25 12:59:35;;;;;;;6.67;4.90;;;;;;;;;;5053213;28;20644;-72
2023/08/25 13:02:01;;;;;;;7.00;4.37;;;;;;;;;;5034953;28;20600;-68
2023/08/25 13:04:26;;;;;;;9.50;6.40;;;;;;;;;;5034857;28;20587;-69
2023/08/25 13:06:56;;;;;;;5.77;5.03;;;;;;;;;;5052864;28;20226;-68
2023/08/25 13:09:22;;;;;;;8.73;5.13;;;;;;;;;;5052661;28;20273;-67
2023/08/25 13:11:48;;;;;;;6.77;4.27;;;;;;;;;;5052649;28;20583;-69
2023/08/25 13:14:14;;;;;;;6.93;4.30;;;;;;;;;;5055008;28;20188;-70
2023/08/25 13:16:40;;;;;;;3.90;3.33;;;;;;;;;;5038572;28;20202;-70
2023/08/25 13:19:06;;;;;;;7.17;4.00;;;;;;;;;;5057236;28;20609;-70
2023/08/25 13:21:32;;;;;;;6.97;4.77;;;;;;;;;;5038695;28;20266;-70
2023/08/25 13:23:58;;;;;;;8.53;4.97;;;;;;;;;;5040206;28;20210;-70
2023/08/25 13:26:24;;;;;;;7.53;4.40;;;;;;;;;;5059925;28;20226;-70
2023/08/25 13:28:50;;;;;;;5.90;4.13;;;;;;;;;;5058598;28;20182;-70
2023/08/25 13:31:16;;;;;;;5.23;3.90;;;;;;;;;;5057176;28;20189;-69
2023/08/25 13:33:42;;;;;;;4.90;3.40;;;;;;;;;;5057487;28;20232;-70
2023/08/25 13:36:08;;;;;;;4.53;4.00;;;;;;;;;;5038514;28;20210;-69
2023/08/25 13:38:34;;;;;;;7.57;4.47;;;;;;;;;;5056583;28;20541;-71
2023/08/25 13:41:00;;;;;;;6.70;4.93;;;;;;;;;;5056460;28;20190;-69
2023/08/25 13:43:26;;;;;;;8.00;5.10;;;;;;;;;;5038465;28;20767;-69
2023/08/25 13:45:54;;;;;;;5.33;3.93;;;;;;;;;;5056418;28;20313;-69
2023/08/25 13:48:20;;;;;;;3.90;3.57;;;;;;;;;;5056160;28;20229;-69
2023/08/25 13:50:46;;;;;;;3.07;2.77;;;;;;;;;;5056136;28;20589;-70
2023/08/25 13:53:12;;;;;;;4.33;3.10;;;;;;;;;;5056477;28;20189;-70
2023/08/25 13:55:39;;;;;;;3.63;3.17;;;;;;;;;;5056161;28;20729;-72
2023/08/25 13:58:05;;;;;;;4.63;2.80;;;;;;;;;;5038864;28;20213;-70
2023/08/25 14:00:31;;;;;;;5.90;2.80;;;;;;;;;;5055923;28;20182;-71
2023/08/25 14:02:57;;;;;;;3.37;2.70;;;;;;;;;;5056316;28;20179;-69
2023/08/25 14:05:23;;;;;;;2.97;2.40;;;;;;;;;;5038270;28;20336;-70
2023/08/25 14:07:50;;;;;;;2.80;2.50;;;;;;;;;;5038610;28;20182;-70
2023/08/25 14:10:17;;;;;;;3.23;2.70;;;;;;;;;;5056166;28;20175;-71
2023/08/25 14:12:43;;;;;;;3.60;2.60;;;;;;;;;;5038428;28;20174;-70
2023/08/25 14:15:09;;;;;;;4.23;2.33;;;;;;;;;;5056800;28;20236;-71
2023/08/25 14:17:35;;;;;;;4.37;2.57;;;;;;;;;;5040744;28;20324;-71
2023/08/25 14:20:03;;;;;;;2.97;2.67;;;;;;;;;;5056473;28;20182;-69
2023/08/25 14:22:29;;;;;;;3.87;2.80;;;;;;;;;;5037925;28;20193;-69